Tamarack, North Carolina
Current Conditions -  °F | °C
As of 6:55 PM on Friday 19 Dec 2014 (Local Time) from KTNB Reporting Station
Clear Clear  
Wind Chill: 37°   Ceiling: Unl
Heat Index: 37°   Visibility: 10mi
Dew Point: 23°   Wind: 0mph
Humidity: 58%   Direction: NA
Pressure: 30.13"   Gusts: NA
Location:  36.3248°N, 81.6045°W
Report Text: KTNB 192355Z AUTO 00000KT 10SM CLR 03/M05 A3013 RMK AO2 T00261050 10052 20026
Loading
Personal Weather Stations






























Interactive Weather Map New forecast layout! Learn more

10-Day Weather Forecast

Advertisements
Track Severe Weather on mobile